NCAR-RAP Real-Time Weather Data

Output produced by METARs form (21 May 2019  10:26 UTC)
found at http://weather.rap.ucar.edu/surface/
 
RJOK 211000Z VRB02KT CAVOK 21/12 Q1004
RJOK 210900Z 17005KT 9999 FEW035 22/13 Q1003
RJOK 210800Z 17007KT 9999 FEW035 23/12 Q1003
RJOK 210700Z 18010KT 9999 FEW035 24/15 Q1002
RJOK 210600Z 13013KT 9999 FEW035 25/15 Q1002
RJOK 210500Z 01014KT 9999 FEW030 28/M01 Q1001
RJOK 210400Z 35016KT 9999 FEW030 SCT/// 27/02 Q1002
RJOK 210300Z 36013KT 9999 FEW025 BKN/// 26/06 Q1002
RJOK 210200Z 36014KT 9999 FEW025 SCT180 BKN/// 23/08 Q1003
RJOK 210100Z 34018KT 9999 FEW025 SCT170 BKN/// 22/09 Q1003
RJOK 210000Z 34017KT 9999 FEW025 SCT170 BKN/// 22/10 Q1002
RJOK 202300Z 34018KT 9999 FEW025 SCT180 BKN/// 21/10 Q1003
RJOK 202200Z 35013KT 9999 FEW010 SCT110 BKN180 20/11 Q1002
RJOK 202110Z 36012KT 9999 FEW010 BKN110 BKN/// 19/11 Q1002 RMK 1ST010 6AC110 A2960
RJOK 201139Z 15018KT 1800 R32/1100VP1800D +SHRA BR FEW003 SCT005 BKN007 22/20 Q1002 RMK 1ST003 3ST005 6ST007 A2961
RJOK 201136Z 15018KT 1800 R32/1100VP1800D +SHRA BR FEW003 BKN005 BKN007 22/20 Q1002 RMK 1ST003 5ST005 6ST007 A2961
RJOK 201130Z 15018KT 2500 SHRA BR FEW003 SCT005 BKN007 22/20 Q1003 RMK 1ST003 3ST005 5ST007 A2962
RJOK 201100Z 15017KT 5000 -SHRA BR FEW003 SCT008 BKN010 22/20 Q1003
RJOK 201037Z 14016KT 3500 -SHRA BR FEW003 SCT005 BKN007 22/20 Q1003 RMK 1ST003 4ST005 6ST007 A2963
RJOK 201015Z 12017KT 2500 R32/1200VP1800U SHRA BR FEW003 BKN005 BKN007 21/20 Q1003 RMK 1ST003 5ST005 6ST007 A2964
RJOK 201007Z 12017KT 1800 R32/1200VP1800D +SHRA BR FEW003 SCT005 BKN008 21/19 Q1003 RMK 1ST003 3ST005 5ST008 A2964
RJOK 201000Z 12017G27KT 2000 SHRA BR FEW003 SCT005 BKN008 21/20 Q1003
RJOK 200945Z 11016KT 2000 SHRA BR FEW003 SCT005 BKN010 20/19 Q1003 RMK 1ST003 3ST005 5ST010 A2964
RJOK 200933Z 11016KT 1600 R32/1200VP1800D +SHRA BR FEW003 SCT007 BKN015 20/19 Q1003 RMK 1ST003 3ST007 5CU015 A2964
RJOK 200900Z 11015KT 3000 R32/1200VP1800U SHRA BR FEW003 BKN007 BKN010 20/18 Q1004
RJOK 200834Z 12014KT 1800 R32/1000VP1800D +SHRA BR FEW003 SCT010 BKN015 20/19 Q1004 RMK 1ST003 3ST010 5CU015 A2967
RJOK 200828Z 12016KT 2000 SHRA BR FEW003 SCT007 BKN015 20/18 Q1004 RMK 1ST003 3ST007 5CU015 A2967
RJOK 200818Z 11017KT 3500 -SHRA BR FEW003 SCT007 BKN020 20/19 Q1004 RMK 1ST003 4ST007 5CU020 A2967
RJOK 200800Z 12020KT 2000 SHRA BR FEW003 SCT005 BKN008 20/18 Q1004
RJOK 200709Z 11013KT 1800 R32/1300VP1800D +SHRA BR FEW003 SCT006 BKN008 20/18 Q1005 RMK 1ST003 3ST006 5ST008 A2970
RJOK 200700Z 11016KT 2000 SHRA BR FEW003 BKN008 BKN010 20/18 Q1005
RJOK 200638Z 11013KT 2500 SHRA BR FEW003 BKN008 BKN025 20/18 Q1005 RMK 1ST003 5ST008 6CU025 A2970
RJOK 200625Z 11014KT 2200 SHRA BR FEW004 SCT010 BKN030 20/18 Q1006 RMK 1ST004 3ST010 6CU030 A2971
RJOK 200607Z 11016KT 3500 SHRA BR FEW004 SCT010 BKN030 20/18 Q1006 RMK 1ST004 3ST010 6CU030 A2971
RJOK 200600Z 11017KT 4000 -SHRA BR FEW004 SCT010 BKN030 20/18 Q1006
RJOK 200542Z 11016G26KT 4000 SHRA BR FEW005 SCT010 BKN030 20/18 Q1006 RMK 1ST005 3ST010 5CU030 A2972
RJOK 200500Z 12022KT 5000 -SHRA BR FEW005 SCT010 BKN025 20/18 Q1007
RJOK 200424Z 12021G33KT 5000 -SHRA BR FEW005 SCT020 BKN035 20/18 Q1008 RMK 1ST005 4CU020 6CU035 A2977
RJOK 200400Z 13022KT 4000 R32/1800U SHRA BR FEW010 BKN020 BKN030 20/18 Q1008
RJOK 200331Z 13020KT 4000 SHRA BR FEW005 BKN030 BKN040 21/18 Q1008 RMK 1ST005 5CU030 6CU040 A2979
RJOK 200300Z 12020KT 8000 -SHRA FEW005 SCT030 BKN045 21/18 Q1009
RJOK 200200Z 12018KT 8000 -SHRA FEW010 SCT020 BKN040 21/17 Q1010
RJOK 200100Z 11013KT 9999 VCSH FEW005 SCT030 BKN040 21/18 Q1010
RJOK 200000Z 09006KT 9999 -SHRA FEW003 SCT030 BKN040 20/17 Q1011
RJOK 192300Z 11007KT 8000 -SHRA FEW005 SCT020 BKN030 20/17 Q1011
RJOK 192200Z 01004KT 9999 VCSH FEW001 SCT020 BKN030 18/16 Q1011
RJOK 192110Z 01003KT 9999 -SHRA FEW003 SCT020 BKN030 18/16 Q1012 RMK 1ST003 3CU020 6CU030 A2988
RJOK 191100Z 12007KT 070V140 9999 VCSH FEW010 SCT040 BKN050 21/14 Q1016
RJOK 191000Z 12008KT 090V160 9999 -SHRA FEW010 SCT030 BKN040 21/14 Q1016
RJOK 190900Z 14007KT 9999 FEW020 SCT035 BKN050 21/15 Q1015
RJOK 190800Z 13009KT 9999 VCSH FEW020 BKN035 BKN050 22/14 Q1015
RJOK 190700Z 12008KT 9999 VCSH FEW020 BKN035 BKN050 22/15 Q1015
RJOK 190600Z 12007KT 9999 FEW020 BKN035 BKN050 22/14 Q1016
RJOK 190500Z 13011KT 9999 FEW020 SCT040 BKN050 22/14 Q1016
RJOK 190400Z 13013KT 9999 FEW020 SCT040 BKN050 22/15 Q1017
RJOK 190300Z 13016KT 9999 FEW020 SCT030 BKN045 22/15 Q1017
RJOK 190200Z 13014KT 9999 FEW020 SCT035 BKN045 23/14 Q1017
RJOK 190100Z 13013KT 9999 FEW020 BKN035 BKN070 23/15 Q1017
RJOK 190000Z 14008KT 9999 FEW020 BKN035 BKN070 23/14 Q1017
RJOK 182300Z 12009KT 9999 VCSH FEW020 BKN040 BKN100 22/15 Q1017